Time;durP1;ratioP1;P1;durP2;ratioP2;P2;SDS_P1;SDS_P2;PMS_P1;PMS_P2;Temp;Humidity;BMP_temperature;BMP_pressure;BME280_temperature;BME280_humidity;BME280_pressure;Samples;Min_cycle;Max_cycle;Signal;HPM_P1;HPM_P2
2022/12/13 00:02:01;;;;;;;18.13;9.82;;;;;;;-1.02;62.13;101169.53;5038047;28;20029;-96
2022/12/13 00:04:26;;;;;;;18.35;9.50;;;;;;;-1.04;62.40;101165.94;5038344;28;20080;-94
2022/12/13 00:06:54;;;;;;;23.08;10.52;;;;;;;-1.02;62.22;101174.72;5038312;28;20037;-96
2022/12/13 00:09:20;;;;;;;17.33;10.00;;;;;;;-1.10;62.13;101180.22;5039129;28;20033;-94
2022/12/13 00:11:47;;;;;;;20.40;9.60;;;;;;;-1.22;62.15;101171.69;5038008;28;20076;-95
2022/12/13 00:14:15;;;;;;;19.45;9.80;;;;;;;-1.28;62.87;101156.66;5037659;28;20102;-95
2022/12/13 00:16:44;;;;;;;21.98;9.68;;;;;;;-1.35;62.72;101142.38;5039238;28;20034;-96
2022/12/13 00:19:10;;;;;;;22.65;10.18;;;;;;;-1.13;62.32;101170.56;5038834;28;20040;-96
2022/12/13 00:21:35;;;;;;;19.50;10.20;;;;;;;-1.19;62.74;101153.72;5039057;28;20026;-95
2022/12/13 00:24:01;;;;;;;22.05;9.85;;;;;;;-1.14;62.21;101154.91;5038396;28;20060;-95
2022/12/13 00:26:29;;;;;;;21.48;10.07;;;;;;;-1.13;62.09;101154.09;5037626;28;20136;-96
2022/12/13 00:28:55;;;;;;;18.30;10.15;;;;;;;-1.20;61.62;101137.28;5036430;28;20025;-95
2022/12/13 00:31:23;;;;;;;25.73;11.13;;;;;;;-1.10;61.72;101162.09;5037681;28;20160;-96
2022/12/13 00:33:49;;;;;;;21.55;11.38;;;;;;;-1.15;61.83;101158.31;5037576;28;20040;-96
2022/12/13 00:36:15;;;;;;;19.63;10.50;;;;;;;-1.19;62.04;101166.69;5036985;28;20029;-95
2022/12/13 00:38:40;;;;;;;19.52;10.55;;;;;;;-1.23;62.47;101154.34;5037064;28;20462;-96
2022/12/13 00:41:11;;;;;;;21.63;10.52;;;;;;;-1.34;62.13;101148.47;5040347;28;20112;-90
2022/12/13 00:43:36;;;;;;;22.50;11.38;;;;;;;-1.41;61.93;101157.56;5058782;28;20018;-92
2022/12/13 00:46:01;;;;;;;22.08;10.93;;;;;;;-1.52;62.67;101158.56;5043633;28;20036;-95
2022/12/13 00:48:27;;;;;;;21.73;10.05;;;;;;;-1.69;63.40;101156.59;5037949;28;20172;-95
2022/12/13 00:50:52;;;;;;;21.70;10.38;;;;;;;-1.68;64.28;101166.13;5035381;28;20481;-95
2022/12/13 00:53:17;;;;;;;22.80;10.77;;;;;;;-1.65;64.07;101156.88;5037266;28;20079;-96
2022/12/13 00:55:43;;;;;;;22.20;11.05;;;;;;;-1.65;63.80;101143.94;5036171;28;20393;-96
2022/12/13 00:58:08;;;;;;;21.00;11.00;;;;;;;-1.62;62.80;101127.69;5037839;28;20033;-96
2022/12/13 01:00:34;;;;;;;20.88;11.23;;;;;;;-1.52;63.42;101137.84;5037894;28;20224;-95
2022/12/13 01:03:18;;;;;;;20.25;10.80;;;;;;;-1.50;62.81;101133.63;5037790;28;20087;-96
2022/12/13 01:05:44;;;;;;;19.70;10.27;;;;;;;-1.40;62.43;101153.28;5037702;28;20026;-96
2022/12/13 01:08:09;;;;;;;20.85;10.45;;;;;;;-1.40;61.75;101154.16;5037173;28;20047;-96
2022/12/13 01:10:34;;;;;;;22.33;10.50;;;;;;;-1.55;61.96;101129.84;5022440;28;20068;-95
2022/12/13 01:13:00;;;;;;;20.98;10.40;;;;;;;-1.51;62.04;101142.22;5037206;28;20033;-92
2022/12/13 01:15:25;;;;;;;23.83;10.63;;;;;;;-1.52;62.13;101145.59;5035109;28;20041;-96
2022/12/13 01:17:50;;;;;;;19.63;10.48;;;;;;;-1.54;62.26;101142.03;5035836;28;20029;-96
2022/12/13 01:20:16;;;;;;;24.23;11.23;;;;;;;-1.54;62.18;101148.13;5035433;28;20042;-95
2022/12/13 01:22:41;;;;;;;24.20;10.95;;;;;;;-1.60;62.00;101146.81;5035822;28;20167;-96
2022/12/13 01:25:07;;;;;;;28.27;10.98;;;;;;;-1.75;62.58;101135.47;5036997;28;20381;-96
2022/12/13 01:27:32;;;;;;;22.00;10.50;;;;;;;-1.64;62.58;101139.63;5019386;28;20037;-96
2022/12/13 01:29:57;;;;;;;21.25;10.63;;;;;;;-1.74;62.65;101111.38;5035723;28;20358;-93
2022/12/13 01:32:23;;;;;;;24.02;11.20;;;;;;;-1.57;61.73;101119.41;5035803;28;20030;-95
2022/12/13 01:34:48;;;;;;;23.55;10.57;;;;;;;-1.52;61.99;101138.72;5035438;28;20438;-96
2022/12/13 01:37:16;;;;;;;23.15;10.43;;;;;;;-1.69;61.69;101126.38;5019435;28;20087;-95
2022/12/13 01:39:41;;;;;;;22.08;10.50;;;;;;;-1.78;61.74;101130.97;5036035;28;20091;-95
2022/12/13 01:42:12;;;;;;;20.40;10.25;;;;;;;-1.79;62.06;101144.75;5018453;28;20038;-96
2022/12/13 01:45:13;;;;;;;22.40;10.45;;;;;;;-1.78;62.33;101154.28;5035824;28;20029;-94
2022/12/13 01:47:45;;;;;;;22.08;10.85;;;;;;;-1.89;62.36;101139.75;5012891;28;20465;-93
2022/12/13 01:50:17;;;;;;;26.98;11.32;;;;;;;-1.84;62.34;101144.44;5018347;28;20100;-94
2022/12/13 01:52:44;;;;;;;21.73;10.53;;;;;;;-1.79;61.98;101150.81;5036164;28;20117;-93
2022/12/13 01:55:12;;;;;;;20.17;10.80;;;;;;;-1.87;62.12;101141.66;5040816;28;20769;-94
2022/12/13 01:57:41;;;;;;;21.58;11.50;;;;;;;-1.81;62.06;101154.97;5037686;28;20087;-94
2022/12/13 02:00:08;;;;;;;22.05;10.60;;;;;;;-1.84;62.54;101148.69;5040607;28;20128;-94
2022/12/13 02:02:33;;;;;;;22.10;11.50;;;;;;;-1.84;62.57;101151.28;5036343;28;20044;-95
2022/12/13 02:05:08;;;;;;;20.92;10.75;;;;;;;-1.97;62.57;101127.97;5036973;28;20021;-95
2022/12/13 02:07:37;;;;;;;21.58;10.60;;;;;;;-1.89;61.88;101142.34;5036992;28;20030;-95
2022/12/13 02:10:05;;;;;;;22.88;10.82;;;;;;;-2.02;62.84;101140.63;5035057;28;20033;-94
2022/12/13 02:12:33;;;;;;;23.23;10.40;;;;;;;-1.98;62.82;101152.09;5049744;28;20041;-92
2022/12/13 02:15:02;;;;;;;21.40;10.70;;;;;;;-1.94;62.67;101149.81;5056185;28;20021;-89
2022/12/13 02:17:46;;;;;;;21.60;10.73;;;;;;;-2.07;63.74;101124.81;5037563;28;20060;-93
2022/12/13 02:20:46;;;;;;;23.65;11.02;;;;;;;-1.75;63.53;101151.91;5035800;28;20060;-94
2022/12/13 02:23:33;;;;;;;20.75;11.02;;;;;;;-1.58;63.01;101147.81;5036070;28;20485;-96
2022/12/13 02:26:13;;;;;;;24.33;10.18;;;;;;;-1.52;62.15;101143.00;5036141;28;20105;-94
2022/12/13 02:29:09;;;;;;;22.52;10.45;;;;;;;-1.48;61.87;101131.16;5034806;28;20041;-95
2022/12/13 02:32:14;;;;;;;22.52;10.90;;;;;;;-1.38;61.54;101146.47;5036156;28;20115;-95
2022/12/13 02:34:42;;;;;;;20.08;10.00;;;;;;;-1.46;60.74;101155.47;5036320;28;20120;-94
2022/12/13 02:37:43;;;;;;;19.67;10.55;;;;;;;-1.52;62.07;101151.69;5034152;28;20494;-94
2022/12/13 02:40:18;;;;;;;19.25;10.38;;;;;;;-1.61;61.24;101145.91;5035626;28;20083;-94
2022/12/13 02:43:13;;;;;;;22.60;10.32;;;;;;;-1.71;61.71;101133.19;5035244;28;20029;-96
2022/12/13 02:45:51;;;;;;;20.67;9.80;;;;;;;-1.84;61.54;101139.25;5034290;28;20033;-95
2022/12/13 02:48:26;;;;;;;22.77;10.95;;;;;;;-1.95;61.49;101134.19;5046854;28;20094;-95
2022/12/13 02:50:53;;;;;;;19.50;10.02;;;;;;;-1.98;62.52;101136.56;5055542;28;20082;-94
2022/12/13 02:53:20;;;;;;;24.88;10.75;;;;;;;-1.88;62.24;101133.78;5055178;28;20060;-95
2022/12/13 02:55:46;;;;;;;23.75;10.77;;;;;;;-1.83;62.16;101130.69;5055479;28;20028;-95
2022/12/13 02:58:14;;;;;;;20.33;10.55;;;;;;;-1.84;61.45;101121.13;5037834;28;20055;-95
2022/12/13 03:00:48;;;;;;;23.40;11.23;;;;;;;-1.85;62.17;101126.19;5037830;28;20032;-96
2022/12/13 03:03:29;;;;;;;21.88;10.75;;;;;;;-1.90;61.71;101125.00;5038056;28;20037;-96
2022/12/13 03:06:29;;;;;;;20.23;10.88;;;;;;;-1.93;62.65;101124.81;5055132;28;20110;-95
2022/12/13 03:09:25;;;;;;;21.45;10.00;;;;;;;-1.91;61.90;101118.94;5055300;28;20041;-95
2022/12/13 03:15:05;;;;;;;32.28;16.42;;;;;;;-2.10;62.55;101109.09;5059235;28;20129;-96
2022/12/13 03:17:40;;;;;;;22.17;11.20;;;;;;;-2.07;63.72;101114.44;5058738;28;20040;-95
2022/12/13 03:20:06;;;;;;;21.58;10.75;;;;;;;-2.15;62.68;101113.03;5059027;28;20037;-95
2022/12/13 03:22:35;;;;;;;24.05;12.00;;;;;;;-2.17;63.08;101116.34;5059788;28;20029;-95
2022/12/13 03:25:00;;;;;;;22.98;11.15;;;;;;;-2.09;64.45;101115.16;5059592;28;20117;-94
2022/12/13 03:27:25;;;;;;;22.52;11.32;;;;;;;-2.00;63.97;101101.91;5059305;28;20029;-94
2022/12/13 03:29:51;;;;;;;22.67;11.00;;;;;;;-1.89;64.28;101121.63;5040200;28;20116;-94
2022/12/13 03:32:16;;;;;;;23.17;11.40;;;;;;;-1.88;65.62;101119.16;5059136;28;20124;-95
2022/12/13 03:34:42;;;;;;;26.60;11.90;;;;;;;-1.87;65.81;101097.63;5040863;28;20094;-95
2022/12/13 03:37:07;;;;;;;26.33;12.55;;;;;;;-1.70;66.00;101115.94;5058753;28;20037;-95
2022/12/13 03:39:33;;;;;;;25.38;12.02;;;;;;;-1.70;67.02;101111.66;5024591;28;20381;-94
2022/12/13 03:41:58;;;;;;;24.85;11.45;;;;;;;-1.62;65.87;101106.97;5041739;28;20045;-94
2022/12/13 03:44:24;;;;;;;23.52;11.70;;;;;;;-1.47;66.11;101125.16;5072949;28;20017;-93
2022/12/13 03:46:49;;;;;;;24.83;12.38;;;;;;;-1.56;65.70;101096.97;5054690;28;20036;-95
2022/12/13 03:49:14;;;;;;;22.33;11.25;;;;;;;-1.61;65.38;101072.47;5036643;28;20140;-95
2022/12/13 03:51:40;;;;;;;27.52;12.15;;;;;;;-1.42;64.96;101110.78;5037403;28;20057;-94
2022/12/13 03:54:06;;;;;;;30.08;12.80;;;;;;;-1.61;64.33;101100.97;5038204;28;20488;-94
2022/12/13 03:56:31;;;;;;;23.70;11.50;;;;;;;-1.72;64.33;101105.47;5038197;28;20041;-93
2022/12/13 03:58:56;;;;;;;24.33;11.65;;;;;;;-1.86;63.88;101103.69;5038339;28;20079;-94
2022/12/13 04:01:22;;;;;;;23.60;11.20;;;;;;;-1.82;63.89;101108.28;5036868;28;20037;-93
2022/12/13 04:03:47;;;;;;;21.92;10.68;;;;;;;-1.90;63.42;101097.41;5038164;28;20029;-94
2022/12/13 04:06:14;;;;;;;21.58;11.15;;;;;;;-1.89;62.61;101112.16;5037296;28;20029;-93
2022/12/13 04:08:40;;;;;;;23.63;11.55;;;;;;;-2.06;63.31;101097.22;5036915;28;20045;-94
2022/12/13 04:13:50;;;;;;;20.85;10.85;;;;;;;-2.35;63.72;101083.28;5037922;28;20500;-94
2022/12/13 04:16:16;;;;;;;22.33;10.85;;;;;;;-2.24;64.62;101098.59;5037377;28;20112;-94
2022/12/13 04:18:42;;;;;;;24.70;12.02;;;;;;;-2.14;64.72;101109.69;5035982;28;20040;-84
2022/12/13 04:21:07;;;;;;;25.55;10.85;;;;;;;-2.13;65.08;101105.41;5035499;28;20026;-83
2022/12/13 04:23:32;;;;;;;20.05;10.00;;;;;;;-2.05;65.05;101093.84;5034594;28;20049;-84
2022/12/13 04:25:59;;;;;;;20.63;10.45;;;;;;;-2.02;63.84;101092.34;5034555;28;20080;-84
2022/12/13 04:28:24;;;;;;;24.83;11.50;;;;;;;-2.08;63.12;101098.81;5035343;28;20116;-85
2022/12/13 04:30:53;;;;;;;21.35;10.60;;;;;;;-2.19;64.17;101089.44;5034083;28;20040;-85
2022/12/13 04:33:32;;;;;;;27.20;11.27;;;;;;;-2.31;64.77;101072.34;5034920;28;20042;-85
2022/12/13 04:35:59;;;;;;;23.75;11.18;;;;;;;-2.37;64.83;101058.97;5033546;28;20037;-83
2022/12/13 04:38:24;;;;;;;23.65;10.95;;;;;;;-2.23;63.99;101101.28;5034133;28;20076;-83
2022/12/13 04:40:50;;;;;;;21.55;10.43;;;;;;;-2.46;64.00;101065.25;5034383;28;20069;-83
2022/12/13 04:43:17;;;;;;;24.75;11.25;;;;;;;-2.72;63.98;101033.38;5034134;28;20029;-84
2022/12/13 04:45:57;;;;;;;25.80;10.95;;;;;;;-2.41;65.38;101100.97;5034209;28;20088;-84
2022/12/13 04:48:31;;;;;;;22.63;11.20;;;;;;;-2.46;66.50;101099.78;5017406;28;20046;-84
2022/12/13 04:50:57;;;;;;;23.67;11.07;;;;;;;-2.64;66.00;101068.41;5033893;28;20029;-85
2022/12/13 04:53:29;;;;;;;25.13;10.55;;;;;;;-2.90;66.25;101004.59;5017329;28;20033;-84
2022/12/13 04:55:55;;;;;;;22.75;10.63;;;;;;;-2.40;66.13;101087.25;5033496;28;20040;-84
2022/12/13 04:58:25;;;;;;;27.30;11.65;;;;;;;-2.39;66.92;101082.97;5033104;28;20033;-84
2022/12/13 05:00:51;;;;;;;21.77;10.68;;;;;;;-2.57;66.09;101042.16;5035029;28;20132;-85
2022/12/13 05:03:19;;;;;;;23.63;11.05;;;;;;;-2.31;65.65;101093.03;5016622;28;20072;-85
2022/12/13 05:05:47;;;;;;;24.67;11.43;;;;;;;-2.87;64.93;100988.38;5034172;28;20036;-85
2022/12/13 05:08:12;;;;;;;25.02;11.32;;;;;;;-2.44;65.64;101067.16;5034726;28;20111;-86
2022/12/13 05:10:38;;;;;;;24.55;10.60;;;;;;;-2.36;66.12;101085.75;5034578;28;20033;-86
2022/12/13 05:13:10;;;;;;;23.92;11.50;;;;;;;-2.44;66.54;101080.09;5034481;28;20060;-85
2022/12/13 05:15:35;;;;;;;23.30;11.10;;;;;;;-2.49;65.15;101086.63;5034285;28;20044;-85
2022/12/13 05:18:06;;;;;;;26.38;11.88;;;;;;;-2.54;66.18;101088.91;5032865;28;20029;-83
2022/12/13 05:20:34;;;;;;;25.17;11.18;;;;;;;-2.63;65.57;101069.31;5034358;28;20025;-85
2022/12/13 05:22:59;;;;;;;25.15;11.40;;;;;;;-2.52;66.12;101082.16;5034867;28;20449;-83
2022/12/13 05:25:25;;;;;;;25.08;11.45;;;;;;;-2.58;65.87;101066.22;5034421;28;20033;-83
2022/12/13 05:27:51;;;;;;;25.85;11.80;;;;;;;-2.56;66.30;101076.69;5032706;28;20127;-83
2022/12/13 05:30:18;;;;;;;29.58;12.63;;;;;;;-2.63;68.01;101079.66;5034540;28;20112;-83
2022/12/13 05:32:44;;;;;;;23.85;11.45;;;;;;;-2.70;67.91;101075.75;5033859;28;20072;-83
2022/12/13 05:35:16;;;;;;;25.00;12.15;;;;;;;-2.86;67.37;101055.72;5033251;28;20108;-83
2022/12/13 05:37:41;;;;;;;23.33;12.30;;;;;;;-2.71;67.04;101068.78;5033758;28;20489;-83
2022/12/13 05:40:08;;;;;;;24.63;12.95;;;;;;;-2.63;67.70;101062.44;5034584;28;20025;-83
2022/12/13 05:42:36;;;;;;;23.58;11.63;;;;;;;-2.57;66.51;101070.63;5033729;28;20040;-83
2022/12/13 05:45:01;;;;;;;26.08;12.27;;;;;;;-2.61;66.81;101052.22;5034682;28;20091;-83
2022/12/13 05:47:27;;;;;;;21.17;11.18;;;;;;;-2.66;66.51;101038.94;5035695;28;20424;-83
2022/12/13 05:49:52;;;;;;;24.98;11.40;;;;;;;-2.73;66.19;101039.34;5054256;28;20485;-82
2022/12/13 05:52:20;;;;;;;22.65;11.32;;;;;;;-2.75;66.34;101052.97;5035917;28;20051;-83
2022/12/13 05:54:46;;;;;;;23.67;11.50;;;;;;;-2.67;67.04;101064.72;5053926;28;20523;-83
2022/12/13 05:57:11;;;;;;;25.30;11.73;;;;;;;-2.67;67.42;101057.84;5053601;28;20120;-83
2022/12/13 05:59:36;;;;;;;21.23;11.30;;;;;;;-2.64;67.81;101052.88;5036023;28;20043;-83
2022/12/13 06:02:02;;;;;;;23.52;11.40;;;;;;;-2.48;68.78;101052.22;5053704;28;20029;-83
2022/12/13 06:04:27;;;;;;;23.83;11.27;;;;;;;-2.36;68.35;101059.88;5053901;28;20408;-83
2022/12/13 06:06:53;;;;;;;22.00;11.57;;;;;;;-2.27;68.21;101055.28;5053356;28;20036;-83
2022/12/13 06:09:19;;;;;;;23.40;11.63;;;;;;;-2.20;67.44;101054.00;5053580;28;20025;-83
2022/12/13 06:11:45;;;;;;;22.92;10.88;;;;;;;-2.21;66.69;101058.28;5035554;28;20063;-83
2022/12/13 06:14:10;;;;;;;27.80;12.50;;;;;;;-2.27;67.53;101060.47;5053690;28;20462;-84
2022/12/13 06:16:35;;;;;;;24.52;11.77;;;;;;;-2.40;67.35;101038.09;5053694;28;20029;-83
2022/12/13 06:19:01;;;;;;;28.73;11.63;;;;;;;-2.25;67.87;101053.72;5035699;28;20036;-83
2022/12/13 06:21:26;;;;;;;25.33;11.80;;;;;;;-2.13;69.11;101057.09;5053989;28;20369;-83
2022/12/13 06:23:52;;;;;;;25.92;12.20;;;;;;;-2.05;68.63;101058.50;5053356;28;20033;-83
2022/12/13 06:26:17;;;;;;;27.75;12.68;;;;;;;-2.08;68.61;101049.63;5036021;28;20025;-83
2022/12/13 06:28:42;;;;;;;25.70;12.38;;;;;;;-1.95;67.94;101062.56;5053824;28;20025;-83
2022/12/13 06:31:08;;;;;;;24.83;11.52;;;;;;;-1.99;66.33;101058.00;5035271;28;20029;-83
2022/12/13 06:33:37;;;;;;;29.92;12.27;;;;;;;-2.15;65.88;101062.97;5036282;28;20077;-83
2022/12/13 06:36:10;;;;;;;26.63;11.55;;;;;;;-2.35;66.88;101069.44;5035700;28;20043;-83
2022/12/13 06:38:39;;;;;;;22.10;11.27;;;;;;;-2.49;67.47;101065.03;5054005;28;20033;-83
2022/12/13 06:41:10;;;;;;;28.88;12.50;;;;;;;-2.55;69.13;101050.91;5054885;28;20461;-85
2022/12/13 06:43:35;;;;;;;23.77;12.45;;;;;;;-2.48;69.68;101047.06;5057145;28;20092;-82
2022/12/13 06:46:16;;;;;;;27.17;11.90;;;;;;;-2.28;69.50;101069.03;5039811;28;20129;-85
2022/12/13 06:48:41;;;;;;;29.85;13.05;;;;;;;-2.29;69.42;101046.56;5040688;28;20049;-83
2022/12/13 06:51:09;;;;;;;27.13;13.05;;;;;;;-2.48;68.80;101009.91;5044170;28;20072;-83
2022/12/13 06:53:39;;;;;;;29.65;12.80;;;;;;;-2.54;69.14;100981.94;5027498;28;20065;-83
2022/12/13 06:56:07;;;;;;;30.50;12.38;;;;;;;-2.35;69.61;101013.41;5045114;28;20090;-84
2022/12/13 06:58:33;;;;;;;25.38;12.65;;;;;;;-2.63;68.49;100973.59;5046816;28;20032;-84
2022/12/13 07:01:17;;;;;;;26.30;13.02;;;;;;;-2.61;69.06;100972.91;5048791;28;20351;-84
2022/12/13 07:03:43;;;;;;;29.27;13.40;;;;;;;-2.32;68.89;101018.75;5046635;28;20036;-84
2022/12/13 07:06:13;;;;;;;24.95;13.15;;;;;;;-2.47;69.24;100993.63;5044338;28;20029;-84
2022/12/13 07:08:42;;;;;;;27.58;12.75;;;;;;;-2.23;69.18;101034.00;5043534;28;20030;-84
2022/12/13 07:11:14;;;;;;;25.70;13.00;;;;;;;-2.38;69.19;101005.44;5041491;28;20033;-84
2022/12/13 07:13:40;;;;;;;30.75;13.85;;;;;;;-2.38;69.57;101012.31;5042129;28;20033;-84
2022/12/13 07:16:06;;;;;;;33.65;15.25;;;;;;;-2.37;69.55;101027.94;5040675;28;20037;-84
2022/12/13 07:18:31;;;;;;;28.95;13.00;;;;;;;-2.11;69.58;101063.25;5040138;28;20071;-84
2022/12/13 07:20:57;;;;;;;27.13;12.32;;;;;;;-2.36;70.05;101008.13;5041061;28;20034;-84
2022/12/13 07:23:22;;;;;;;26.08;13.02;;;;;;;-2.08;70.41;101066.06;5041365;28;20416;-84
2022/12/13 07:25:55;;;;;;;27.67;12.73;;;;;;;-2.28;70.57;101027.63;5039880;28;20369;-84
2022/12/13 07:28:28;;;;;;;31.52;13.95;;;;;;;-2.00;69.87;101069.16;5039878;28;20037;-84
2022/12/13 07:30:54;;;;;;;28.38;14.07;;;;;;;-2.44;70.24;100996.38;5039309;28;20099;-84
2022/12/13 07:33:19;;;;;;;33.10;14.48;;;;;;;-2.19;70.48;101032.50;5041293;28;20036;-84
2022/12/13 07:35:45;;;;;;;31.13;14.10;;;;;;;-2.22;70.39;101028.03;5041791;28;20045;-84
2022/12/13 07:38:11;;;;;;;33.10;14.45;;;;;;;-2.63;70.50;100981.34;5025211;28;20029;-84
2022/12/13 07:40:38;;;;;;;28.48;13.82;;;;;;;-2.38;70.27;101036.50;5039690;28;20025;-84
2022/12/13 07:43:04;;;;;;;26.67;13.02;;;;;;;-2.59;70.54;101011.81;5038342;28;20033;-84
2022/12/13 07:45:29;;;;;;;32.03;13.68;;;;;;;-2.27;70.89;101074.34;5041767;28;20037;-84
2022/12/13 07:47:55;;;;;;;32.78;14.43;;;;;;;-2.23;71.51;101069.34;5054036;28;20056;-83
2022/12/13 07:50:21;;;;;;;25.60;13.18;;;;;;;-2.27;71.16;101060.47;5056544;28;20034;-82
2022/12/13 07:52:47;;;;;;;31.55;14.73;;;;;;;-2.13;71.83;101071.75;5044379;28;20029;-84
2022/12/13 07:55:12;;;;;;;25.92;13.13;;;;;;;-2.13;71.28;101077.81;5038825;28;20096;-84
2022/12/13 07:57:38;;;;;;;30.23;14.23;;;;;;;-2.16;71.64;101069.84;5041033;28;20034;-84
2022/12/13 08:00:04;;;;;;;29.20;14.20;;;;;;;-2.09;71.49;101084.09;5038735;28;20423;-85
2022/12/13 08:02:29;;;;;;;30.40;15.48;;;;;;;-2.04;71.70;101085.28;5041624;28;20040;-84
2022/12/13 08:04:54;;;;;;;30.17;14.50;;;;;;;-1.99;72.86;101070.94;5046303;28;20044;-85
2022/12/13 08:07:20;;;;;;;30.13;14.30;;;;;;;-1.93;72.43;101055.78;5054583;28;20049;-85
2022/12/13 08:09:45;;;;;;;28.17;13.95;;;;;;;-1.69;72.40;101074.59;5040282;28;20041;-85
2022/12/13 08:12:11;;;;;;;28.27;14.02;;;;;;;-1.61;71.93;101059.53;5055458;28;20049;-86
2022/12/13 08:14:36;;;;;;;32.08;14.80;;;;;;;-1.40;72.11;101055.69;5055136;28;20037;-85
2022/12/13 08:17:01;;;;;;;32.20;14.77;;;;;;;-1.28;71.66;101051.25;5055817;28;20097;-86
2022/12/13 08:19:27;;;;;;;33.33;15.60;;;;;;;-1.16;71.03;101052.78;5057180;28;20056;-84
2022/12/13 08:21:52;;;;;;;31.85;14.57;;;;;;;-1.15;70.59;101047.72;5038178;28;20057;-85
2022/12/13 08:24:19;;;;;;;28.58;13.90;;;;;;;-0.98;70.26;101082.44;5055744;28;20017;-86
2022/12/13 08:26:44;;;;;;;31.55;15.57;;;;;;;-1.04;70.09;101074.28;5055977;28;20033;-86
2022/12/13 08:29:12;;;;;;;36.92;19.15;;;;;;;-0.99;71.56;101085.81;5056643;28;20022;-85
2022/12/13 08:31:37;;;;;;;34.03;15.73;;;;;;;-0.90;70.59;101088.06;5056495;28;20030;-85
2022/12/13 08:34:03;;;;;;;37.30;17.77;;;;;;;-0.86;70.27;101084.84;5057546;28;20104;-86
2022/12/13 08:36:28;;;;;;;34.17;15.93;;;;;;;-0.79;70.01;101092.22;5057121;28;20045;-85
2022/12/13 08:38:55;;;;;;;33.45;16.63;;;;;;;-0.70;70.81;101079.78;5056401;28;20042;-85
2022/12/13 08:41:21;;;;;;;32.67;15.90;;;;;;;-0.55;69.39;101067.72;5053255;28;20030;-85
2022/12/13 08:43:47;;;;;;;35.60;17.15;;;;;;;-0.43;69.41;101082.22;5041729;28;20033;-86
2022/12/13 08:46:13;;;;;;;37.00;18.17;;;;;;;-0.59;69.58;101063.16;5039609;28;20101;-85
2022/12/13 08:48:38;;;;;;;34.00;16.25;;;;;;;-0.41;69.16;101086.69;5036920;28;20089;-85
2022/12/13 08:51:11;;;;;;;31.67;15.90;;;;;;;-0.50;68.31;101070.59;5038067;28;20034;-86
2022/12/13 08:53:36;;;;;;;;;;;;;;;-0.27;68.72;101090.09;5037805;28;20049;-84
2022/12/13 08:56:04;;;;;;;32.72;15.40;;;;;;;-0.18;69.15;101093.22;5038289;28;20265;-84
2022/12/13 08:58:30;;;;;;;31.27;15.50;;;;;;;0.09;69.14;101098.22;5036345;28;20159;-86
2022/12/13 09:00:56;;;;;;;34.67;16.65;;;;;;;0.33;68.47;101103.88;5038232;28;20424;-83
2022/12/13 09:03:23;;;;;;;32.90;16.58;;;;;;;0.42;67.85;101104.38;5036683;28;20037;-83
2022/12/13 09:05:48;;;;;;;32.63;16.20;;;;;;;0.53;67.60;101105.00;5035034;28;20021;-82
2022/12/13 09:08:14;;;;;;;34.80;16.27;;;;;;;0.49;67.35;101093.53;5035486;28;20021;-83
2022/12/13 09:10:39;;;;;;;30.25;16.60;;;;;;;0.49;67.43;101093.53;5035189;28;20025;-81
2022/12/13 09:13:05;;;;;;;31.90;16.00;;;;;;;0.62;67.71;101083.00;5034041;28;20045;-82
2022/12/13 09:15:31;;;;;;;29.75;16.35;;;;;;;0.74;67.40;101070.66;5034405;28;20048;-82
2022/12/13 09:17:57;;;;;;;34.15;16.63;;;;;;;0.86;66.68;101072.13;5033788;28;20030;-83
2022/12/13 09:20:22;;;;;;;34.92;16.27;;;;;;;0.90;67.06;101097.47;5038706;28;20064;-82
2022/12/13 09:22:48;;;;;;;28.98;16.02;;;;;;;0.82;67.04;101096.19;5036268;28;20083;-82
2022/12/13 09:25:13;;;;;;;31.48;15.50;;;;;;;0.85;66.45;101104.13;5034508;28;20026;-83
2022/12/13 09:27:39;;;;;;;33.88;16.65;;;;;;;0.94;67.40;101100.34;5034122;28;20068;-81
2022/12/13 09:30:05;;;;;;;35.10;16.88;;;;;;;1.06;66.93;101078.38;5033452;28;20041;-81
2022/12/13 09:32:31;;;;;;;33.25;15.98;;;;;;;1.42;66.60;101075.06;5034228;28;20519;-82
2022/12/13 09:34:56;;;;;;;32.70;16.85;;;;;;;1.59;65.20;101077.66;5034240;28;20030;-81
2022/12/13 09:37:22;;;;;;;29.83;15.73;;;;;;;1.67;65.33;101108.47;5035312;28;20509;-82
2022/12/13 09:39:47;;;;;;;33.47;17.60;;;;;;;1.51;64.75;101100.69;5033934;28;20034;-81
2022/12/13 09:42:21;;;;;;;33.40;17.05;;;;;;;1.15;65.38;101104.88;5035573;28;20481;-82
2022/12/13 09:45:00;;;;;;;36.50;17.35;;;;;;;0.99;67.43;101104.06;5033104;28;20060;-82
2022/12/13 09:47:38;;;;;;;33.70;16.58;;;;;;;1.05;67.23;101107.81;5032400;28;20033;-81
2022/12/13 09:50:16;;;;;;;32.30;16.67;;;;;;;1.23;67.20;101104.44;5033646;28;20033;-83
2022/12/13 09:52:43;;;;;;;32.08;16.27;;;;;;;1.42;65.98;101097.63;5033681;28;20060;-83
2022/12/13 09:55:43;;;;;;;30.70;17.00;;;;;;;1.54;66.68;101093.00;5032954;28;20454;-82
2022/12/13 09:58:22;;;;;;;37.70;16.98;;;;;;;1.62;66.06;101063.03;5010629;28;20037;-80
2022/12/13 10:00:50;;;;;;;31.90;16.02;;;;;;;1.97;65.87;101071.69;5033324;28;20049;-82
2022/12/13 10:03:18;;;;;;;34.33;16.40;;;;;;;2.09;64.48;101077.50;5033359;28;20121;-82
2022/12/13 10:05:53;;;;;;;34.53;16.52;;;;;;;2.07;64.17;101075.66;5032226;28;20033;-82
2022/12/13 10:08:26;;;;;;;33.00;16.52;;;;;;;1.91;64.64;101047.97;5034051;28;20040;-83
2022/12/13 10:10:54;;;;;;;34.60;17.67;;;;;;;1.90;64.11;101061.81;5033696;28;20075;-82
2022/12/13 10:13:41;;;;;;;31.33;16.33;;;;;;;1.98;65.33;101073.50;5033646;28;20034;-82
2022/12/13 10:16:12;;;;;;;30.50;15.93;;;;;;;1.90;65.01;101073.13;5033465;28;20365;-83
2022/12/13 10:18:40;;;;;;;31.63;16.25;;;;;;;1.69;65.61;101052.13;5033318;28;20026;-83
2022/12/13 10:21:14;;;;;;;33.05;16.88;;;;;;;1.82;66.21;101047.53;5032647;28;20499;-85
2022/12/13 10:23:39;;;;;;;32.25;16.08;;;;;;;1.89;65.32;101060.94;5033770;28;20030;-87
2022/12/13 10:26:10;;;;;;;34.65;16.08;;;;;;;1.89;64.41;101052.22;5031559;28;20037;-83
2022/12/13 10:28:36;;;;;;;32.97;16.33;;;;;;;1.96;65.01;101062.09;5033069;28;20484;-82
2022/12/13 10:31:02;;;;;;;29.05;14.93;;;;;;;2.01;65.29;101060.63;5032941;28;20042;-82
2022/12/13 10:33:47;;;;;;;34.22;17.65;;;;;;;2.07;65.60;101040.06;5031266;28;20405;-83
2022/12/13 10:36:30;;;;;;;30.65;16.80;;;;;;;1.77;64.97;101010.81;5032274;28;20051;-85
2022/12/13 10:38:56;;;;;;;31.98;16.23;;;;;;;2.08;64.80;101049.69;5032826;28;20033;-84
2022/12/13 10:41:28;;;;;;;39.35;16.42;;;;;;;1.97;64.63;101019.59;5032880;28;20084;-83
2022/12/13 10:44:16;;;;;;;32.25;16.48;;;;;;;2.21;64.89;101020.75;5032774;28;20108;-84
2022/12/13 10:46:48;;;;;;;35.38;17.13;;;;;;;2.37;64.52;101040.63;5032963;28;20025;-85
2022/12/13 10:49:19;;;;;;;;;;;;;;;2.46;64.25;101037.56;5047700;28;20083;-84
2022/12/13 10:51:45;;;;;;;30.65;15.10;;;;;;;2.43;63.96;101016.53;5034795;28;20003;-84
2022/12/13 10:54:15;;;;;;;31.17;15.90;;;;;;;2.46;63.44;101014.97;5035207;28;20029;-84
2022/12/13 10:56:49;;;;;;;29.40;14.50;;;;;;;2.60;62.52;101017.31;5052721;28;20121;-85
2022/12/13 10:59:19;;;;;;;30.60;15.70;;;;;;;2.77;62.78;101018.97;5035095;28;20374;-82
2022/12/13 11:01:45;;;;;;;30.35;15.68;;;;;;;2.97;62.16;101009.41;5035166;28;20415;-83
2022/12/13 11:04:28;;;;;;;30.55;16.23;;;;;;;3.11;61.61;101007.41;5052846;28;20044;-84
2022/12/13 11:06:56;;;;;;;30.23;16.05;;;;;;;3.20;62.30;100999.97;5052684;28;20036;-84
2022/12/13 11:09:32;;;;;;;30.27;16.60;;;;;;;3.35;60.63;100994.53;5052476;28;20036;-84
2022/12/13 11:12:01;;;;;;;26.38;14.70;;;;;;;3.45;59.66;101002.78;5052753;28;20075;-83
2022/12/13 11:14:31;;;;;;;28.75;15.13;;;;;;;3.27;59.64;100991.56;5052385;28;20036;-85
2022/12/13 11:17:07;;;;;;;27.75;14.77;;;;;;;3.10;58.88;100975.19;5052488;28;20492;-84
2022/12/13 11:19:39;;;;;;;27.58;14.88;;;;;;;3.16;60.49;100977.16;5052066;28;20389;-83
2022/12/13 11:22:08;;;;;;;28.83;15.53;;;;;;;2.94;59.29;100971.00;5052361;28;20063;-83
2022/12/13 11:24:36;;;;;;;29.27;15.73;;;;;;;2.93;60.38;100987.50;5052318;28;20090;-84
2022/12/13 11:27:39;;;;;;;28.83;14.52;;;;;;;2.83;60.55;100993.16;5052357;28;20029;-85